sensor_id;sensor_type;location;lat;lon;timestamp;pressure;altitude;pressure_sealevel;temperature;humidity
30598;BME280;17365;48.878;8.334;2022-08-04T00:05:03;99704.63;;;24.92;51.00
30598;BME280;17365;48.878;8.334;2022-08-04T00:07:47;99696.09;;;25.01;50.55
30598;BME280;17365;48.878;8.334;2022-08-04T00:10:17;99701.41;;;25.01;50.28
30598;BME280;17365;48.878;8.334;2022-08-04T00:12:46;99691.63;;;24.87;50.80
30598;BME280;17365;48.878;8.334;2022-08-04T00:15:14;99687.59;;;24.82;51.05
30598;BME280;17365;48.878;8.334;2022-08-04T00:17:43;99690.81;;;24.73;51.82
30598;BME280;17365;48.878;8.334;2022-08-04T00:20:11;99686.13;;;24.90;50.85
30598;BME280;17365;48.878;8.334;2022-08-04T00:22:41;99685.13;;;24.79;51.11
30598;BME280;17365;48.878;8.334;2022-08-04T00:25:09;99680.88;;;24.76;51.29
30598;BME280;17365;48.878;8.334;2022-08-04T00:27:34;99686.94;;;24.64;52.07
30598;BME280;17365;48.878;8.334;2022-08-04T00:30:00;99690.63;;;24.76;51.22
30598;BME280;17365;48.878;8.334;2022-08-04T00:32:26;99694.25;;;24.60;51.79
30598;BME280;17365;48.878;8.334;2022-08-04T00:34:53;99693.84;;;24.66;51.36
30598;BME280;17365;48.878;8.334;2022-08-04T00:37:20;99695.00;;;24.62;51.71
30598;BME280;17365;48.878;8.334;2022-08-04T00:39:48;99696.59;;;24.65;52.11
30598;BME280;17365;48.878;8.334;2022-08-04T00:42:29;99699.81;;;24.56;52.35
30598;BME280;17365;48.878;8.334;2022-08-04T00:47:52;99697.78;;;24.47;52.35
30598;BME280;17365;48.878;8.334;2022-08-04T00:50:32;99697.94;;;24.44;52.22
30598;BME280;17365;48.878;8.334;2022-08-04T00:53:07;99700.66;;;24.28;53.14
30598;BME280;17365;48.878;8.334;2022-08-04T00:56:02;99702.38;;;24.29;52.82
30598;BME280;17365;48.878;8.334;2022-08-04T01:01:16;99708.38;;;24.47;52.31
30598;BME280;17365;48.878;8.334;2022-08-04T01:06:51;99715.19;;;23.92;54.41
30598;BME280;17365;48.878;8.334;2022-08-04T01:15:09;99720.72;;;24.03;54.19
30598;BME280;17365;48.878;8.334;2022-08-04T01:20:25;99722.53;;;24.17;53.75
30598;BME280;17365;48.878;8.334;2022-08-04T01:26:12;99726.56;;;24.08;54.19
30598;BME280;17365;48.878;8.334;2022-08-04T01:29:04;99720.63;;;24.05;53.94
30598;BME280;17365;48.878;8.334;2022-08-04T01:32:01;99726.56;;;23.94;54.50
30598;BME280;17365;48.878;8.334;2022-08-04T01:34:55;99712.84;;;24.02;53.89
30598;BME280;17365;48.878;8.334;2022-08-04T01:40:21;99706.91;;;24.13;54.43
30598;BME280;17365;48.878;8.334;2022-08-04T01:42:48;99712.88;;;24.16;53.95
30598;BME280;17365;48.878;8.334;2022-08-04T01:45:16;99705.88;;;24.15;54.16
30598;BME280;17365;48.878;8.334;2022-08-04T01:47:50;99706.88;;;23.98;54.69
30598;BME280;17365;48.878;8.334;2022-08-04T01:50:15;99712.19;;;23.68;55.49
30598;BME280;17365;48.878;8.334;2022-08-04T01:52:43;99707.25;;;23.92;54.90
30598;BME280;17365;48.878;8.334;2022-08-04T01:55:10;99714.88;;;23.83;55.62
30598;BME280;17365;48.878;8.334;2022-08-04T01:57:40;99710.25;;;23.86;55.16
30598;BME280;17365;48.878;8.334;2022-08-04T02:00:08;99710.31;;;23.54;56.65
30598;BME280;17365;48.878;8.334;2022-08-04T02:02:34;99707.28;;;23.76;55.76
30598;BME280;17365;48.878;8.334;2022-08-04T02:04:59;99709.50;;;23.84;55.82
30598;BME280;17365;48.878;8.334;2022-08-04T02:07:34;99706.91;;;23.68;55.93
30598;BME280;17365;48.878;8.334;2022-08-04T02:10:07;99706.81;;;23.70;55.75
30598;BME280;17365;48.878;8.334;2022-08-04T02:15:50;99708.75;;;23.66;55.93
30598;BME280;17365;48.878;8.334;2022-08-04T02:18:43;99706.19;;;23.80;55.58
30598;BME280;17365;48.878;8.334;2022-08-04T02:21:15;99708.06;;;23.78;55.74
30598;BME280;17365;48.878;8.334;2022-08-04T02:23:46;99708.22;;;23.75;55.77
30598;BME280;17365;48.878;8.334;2022-08-04T02:26:19;99706.81;;;23.70;56.22
30598;BME280;17365;48.878;8.334;2022-08-04T02:29:02;99706.91;;;23.68;55.72
30598;BME280;17365;48.878;8.334;2022-08-04T02:36:40;99705.34;;;23.64;56.60
30598;BME280;17365;48.878;8.334;2022-08-04T02:39:07;99701.34;;;23.57;56.87
30598;BME280;17365;48.878;8.334;2022-08-04T02:41:34;99699.75;;;23.39;57.49
30598;BME280;17365;48.878;8.334;2022-08-04T02:44:05;99701.88;;;23.48;56.72
30598;BME280;17365;48.878;8.334;2022-08-04T02:46:32;99698.28;;;23.49;56.84
30598;BME280;17365;48.878;8.334;2022-08-04T02:49:02;99706.97;;;23.51;56.73
30598;BME280;17365;48.878;8.334;2022-08-04T02:51:30;99699.81;;;23.53;56.69
30598;BME280;17365;48.878;8.334;2022-08-04T02:53:58;99698.75;;;23.26;57.92
30598;BME280;17365;48.878;8.334;2022-08-04T02:56:27;99701.97;;;23.31;57.87
30598;BME280;17365;48.878;8.334;2022-08-04T02:58:58;99705.78;;;23.11;58.65
30598;BME280;17365;48.878;8.334;2022-08-04T03:01:24;99710.44;;;23.21;58.25
30598;BME280;17365;48.878;8.334;2022-08-04T03:06:37;99705.53;;;23.00;59.38
30598;BME280;17365;48.878;8.334;2022-08-04T03:28:21;99718.22;;;22.93;59.49
30598;BME280;17365;48.878;8.334;2022-08-04T03:33:51;99716.28;;;22.63;60.66
30598;BME280;17365;48.878;8.334;2022-08-04T03:39:57;99727.38;;;22.54;60.75
30598;BME280;17365;48.878;8.334;2022-08-04T03:48:06;99716.34;;;22.46;61.12
30598;BME280;17365;48.878;8.334;2022-08-04T03:50:45;99715.97;;;22.70;60.41
30598;BME280;17365;48.878;8.334;2022-08-04T03:53:51;99714.94;;;22.39;61.65
30598;BME280;17365;48.878;8.334;2022-08-04T03:56:34;99715.94;;;22.54;61.20
30598;BME280;17365;48.878;8.334;2022-08-04T03:59:32;99714.91;;;22.56;60.98
30598;BME280;17365;48.878;8.334;2022-08-04T04:04:51;99723.63;;;22.25;61.80
30598;BME280;17365;48.878;8.334;2022-08-04T04:13:16;99733.34;;;22.25;61.67
30598;BME280;17365;48.878;8.334;2022-08-04T04:16:06;99736.47;;;22.49;61.14
30598;BME280;17365;48.878;8.334;2022-08-04T04:30:03;99740.16;;;22.62;60.12
30598;BME280;17365;48.878;8.334;2022-08-04T04:35:50;99750.03;;;22.43;60.85
30598;BME280;17365;48.878;8.334;2022-08-04T04:41:09;99745.78;;;22.89;59.30
30598;BME280;17365;48.878;8.334;2022-08-04T04:55:40;99755.72;;;23.01;58.92
30598;BME280;17365;48.878;8.334;2022-08-04T04:58:11;99749.19;;;23.38;57.64
30598;BME280;17365;48.878;8.334;2022-08-04T05:01:03;99752.88;;;23.67;57.28
30598;BME280;17365;48.878;8.334;2022-08-04T05:06:23;99749.97;;;24.16;55.82
30598;BME280;17365;48.878;8.334;2022-08-04T05:09:15;99749.28;;;24.43;54.84
30598;BME280;17365;48.878;8.334;2022-08-04T05:12:13;99749.72;;;24.35;54.27
30598;BME280;17365;48.878;8.334;2022-08-04T05:14:49;99742.47;;;24.53;53.85
30598;BME280;17365;48.878;8.334;2022-08-04T05:17:29;99748.97;;;24.90;53.79
30598;BME280;17365;48.878;8.334;2022-08-04T05:20:02;99748.97;;;24.90;53.72
30598;BME280;17365;48.878;8.334;2022-08-04T05:22:46;99755.22;;;25.17;52.72
30598;BME280;17365;48.878;8.334;2022-08-04T05:28:32;99756.81;;;25.47;51.80
30598;BME280;17365;48.878;8.334;2022-08-04T05:31:01;99763.78;;;25.76;51.55
30598;BME280;17365;48.878;8.334;2022-08-04T05:33:34;99767.41;;;25.88;51.39
30598;BME280;17365;48.878;8.334;2022-08-04T05:36:07;99768.66;;;25.55;52.52
30598;BME280;17365;48.878;8.334;2022-08-04T05:38:37;99764.63;;;25.77;52.02
30598;BME280;17365;48.878;8.334;2022-08-04T05:41:04;99767.75;;;25.83;52.05
30598;BME280;17365;48.878;8.334;2022-08-04T05:43:29;99775.75;;;25.96;51.63
30598;BME280;17365;48.878;8.334;2022-08-04T05:45:55;99780.22;;;26.08;50.35
30598;BME280;17365;48.878;8.334;2022-08-04T05:48:22;99773.44;;;26.30;50.22
30598;BME280;17365;48.878;8.334;2022-08-04T05:50:48;99774.16;;;26.06;50.02
30598;BME280;17365;48.878;8.334;2022-08-04T05:53:15;99766.09;;;26.33;48.78
30598;BME280;17365;48.878;8.334;2022-08-04T05:55:41;99770.56;;;26.33;49.14
30598;BME280;17365;48.878;8.334;2022-08-04T05:58:07;99775.63;;;26.63;48.06
30598;BME280;17365;48.878;8.334;2022-08-04T06:00:33;99775.19;;;26.56;47.36
30598;BME280;17365;48.878;8.334;2022-08-04T06:03:00;99777.63;;;26.85;47.26
30598;BME280;17365;48.878;8.334;2022-08-04T06:05:26;99780.81;;;26.64;46.56
30598;BME280;17365;48.878;8.334;2022-08-04T06:07:52;99778.97;;;27.03;47.09
30598;BME280;17365;48.878;8.334;2022-08-04T06:10:17;99781.97;;;27.11;46.75
30598;BME280;17365;48.878;8.334;2022-08-04T06:12:55;99781.66;;;27.03;46.98
30598;BME280;17365;48.878;8.334;2022-08-04T06:15:23;99780.72;;;27.28;46.56
30598;BME280;17365;48.878;8.334;2022-08-04T06:17:53;99782.63;;;26.64;46.15
30598;BME280;17365;48.878;8.334;2022-08-04T06:20:20;99774.97;;;26.59;47.05
30598;BME280;17365;48.878;8.334;2022-08-04T06:22:53;99778.47;;;26.85;46.22
30598;BME280;17365;48.878;8.334;2022-08-04T06:25:22;99777.22;;;26.40;46.84
30598;BME280;17365;48.878;8.334;2022-08-04T06:27:49;99785.16;;;26.91;46.59
30598;BME280;17365;48.878;8.334;2022-08-04T06:30:16;99783.22;;;26.93;46.69
30598;BME280;17365;48.878;8.334;2022-08-04T06:32:44;99778.44;;;26.98;46.67
30598;BME280;17365;48.878;8.334;2022-08-04T06:35:20;99782.50;;;27.04;46.49
30598;BME280;17365;48.878;8.334;2022-08-04T06:37:47;99787.16;;;27.13;46.29
30598;BME280;17365;48.878;8.334;2022-08-04T06:40:14;99784.41;;;27.38;45.94
30598;BME280;17365;48.878;8.334;2022-08-04T06:42:41;99792.53;;;27.37;45.96
30598;BME280;17365;48.878;8.334;2022-08-04T06:45:09;99783.63;;;27.49;45.65
30598;BME280;17365;48.878;8.334;2022-08-04T06:47:37;99776.97;;;27.43;45.80
30598;BME280;17365;48.878;8.334;2022-08-04T06:50:04;99788.59;;;27.42;45.60
30598;BME280;17365;48.878;8.334;2022-08-04T06:52:30;99788.47;;;27.44;46.33
30598;BME280;17365;48.878;8.334;2022-08-04T06:54:56;99789.13;;;27.71;46.05
30598;BME280;17365;48.878;8.334;2022-08-04T06:57:27;99784.47;;;27.49;46.09
30598;BME280;17365;48.878;8.334;2022-08-04T06:59:58;99787.72;;;27.78;44.68
30598;BME280;17365;48.878;8.334;2022-08-04T07:02:26;99788.72;;;27.52;45.36
30598;BME280;17365;48.878;8.334;2022-08-04T07:04:53;99792.63;;;27.72;44.67
30598;BME280;17365;48.878;8.334;2022-08-04T07:07:18;99786.59;;;28.05;43.74
30598;BME280;17365;48.878;8.334;2022-08-04T07:09:44;99784.91;;;28.15;43.44
30598;BME280;17365;48.878;8.334;2022-08-04T07:12:10;99789.78;;;28.10;43.94
30598;BME280;17365;48.878;8.334;2022-08-04T07:14:37;99787.34;;;28.18;43.41
30598;BME280;17365;48.878;8.334;2022-08-04T07:17:03;99780.06;;;28.09;43.27
30598;BME280;17365;48.878;8.334;2022-08-04T07:19:31;99775.31;;;28.01;43.16
30598;BME280;17365;48.878;8.334;2022-08-04T07:21:58;99779.09;;;28.10;43.30
30598;BME280;17365;48.878;8.334;2022-08-04T07:24:31;99774.56;;;28.34;42.71
30598;BME280;17365;48.878;8.334;2022-08-04T07:26:58;99777.03;;;28.60;42.26
30598;BME280;17365;48.878;8.334;2022-08-04T07:29:23;99775.78;;;28.53;42.56
30598;BME280;17365;48.878;8.334;2022-08-04T07:31:49;99776.56;;;28.66;42.17
30598;BME280;17365;48.878;8.334;2022-08-04T07:34:15;99783.19;;;28.49;42.09
30598;BME280;17365;48.878;8.334;2022-08-04T07:36:40;99785.25;;;28.34;41.03
30598;BME280;17365;48.878;8.334;2022-08-04T07:39:06;99784.31;;;28.58;41.53
30598;BME280;17365;48.878;8.334;2022-08-04T07:41:31;99782.50;;;28.58;41.16
30598;BME280;17365;48.878;8.334;2022-08-04T07:43:57;99784.19;;;28.70;40.98
30598;BME280;17365;48.878;8.334;2022-08-04T07:46:24;99791.75;;;28.99;40.55
30598;BME280;17365;48.878;8.334;2022-08-04T07:48:49;99791.63;;;29.12;40.00
30598;BME280;17365;48.878;8.334;2022-08-04T07:51:16;99794.78;;;28.94;40.17
30598;BME280;17365;48.878;8.334;2022-08-04T07:53:42;99789.69;;;28.91;40.64
30598;BME280;17365;48.878;8.334;2022-08-04T07:56:08;99794.16;;;29.24;40.37
30598;BME280;17365;48.878;8.334;2022-08-04T07:58:34;99796.34;;;29.08;40.66
30598;BME280;17365;48.878;8.334;2022-08-04T08:01:00;99799.41;;;28.92;39.74
30598;BME280;17365;48.878;8.334;2022-08-04T08:03:26;99794.91;;;29.15;39.93
30598;BME280;17365;48.878;8.334;2022-08-04T08:05:51;99789.78;;;29.35;39.89
30598;BME280;17365;48.878;8.334;2022-08-04T08:08:17;99783.91;;;29.52;39.10
30598;BME280;17365;48.878;8.334;2022-08-04T08:10:46;99787.91;;;29.58;39.28
30598;BME280;17365;48.878;8.334;2022-08-04T08:13:13;99781.94;;;29.65;39.28
30598;BME280;17365;48.878;8.334;2022-08-04T08:15:40;99781.69;;;29.68;39.66
30598;BME280;17365;48.878;8.334;2022-08-04T08:18:05;99778.00;;;29.80;38.83
30598;BME280;17365;48.878;8.334;2022-08-04T08:20:30;99779.88;;;29.69;38.79
30598;BME280;17365;48.878;8.334;2022-08-04T08:22:57;99777.69;;;29.63;38.45
30598;BME280;17365;48.878;8.334;2022-08-04T08:25:23;99781.56;;;30.02;37.70
30598;BME280;17365;48.878;8.334;2022-08-04T08:27:48;99776.78;;;30.05;37.30
30598;BME280;17365;48.878;8.334;2022-08-04T08:30:14;99787.00;;;30.00;37.55
30598;BME280;17365;48.878;8.334;2022-08-04T08:32:39;99780.28;;;30.17;37.00
30598;BME280;17365;48.878;8.334;2022-08-04T08:35:05;99785.28;;;30.10;36.99
30598;BME280;17365;48.878;8.334;2022-08-04T08:37:40;99779.59;;;30.04;35.88
30598;BME280;17365;48.878;8.334;2022-08-04T08:42:54;99784.44;;;30.52;35.59
30598;BME280;17365;48.878;8.334;2022-08-04T08:48:31;99782.09;;;30.58;35.91
30598;BME280;17365;48.878;8.334;2022-08-04T08:51:31;99783.63;;;30.82;35.71
30598;BME280;17365;48.878;8.334;2022-08-04T08:54:15;99779.88;;;30.63;35.55
30598;BME280;17365;48.878;8.334;2022-08-04T08:57:09;99781.56;;;30.95;35.26
30598;BME280;17365;48.878;8.334;2022-08-04T08:59:52;99780.06;;;30.71;35.29
30598;BME280;17365;48.878;8.334;2022-08-04T09:05:16;99778.44;;;30.90;35.02
30598;BME280;17365;48.878;8.334;2022-08-04T09:10:45;99768.22;;;31.14;34.96
30598;BME280;17365;48.878;8.334;2022-08-04T09:13:44;99772.63;;;31.25;35.12
30598;BME280;17365;48.878;8.334;2022-08-04T09:16:44;99772.53;;;31.46;34.56
30598;BME280;17365;48.878;8.334;2022-08-04T09:19:16;99771.56;;;31.47;34.73
30598;BME280;17365;48.878;8.334;2022-08-04T09:27:25;99769.06;;;32.03;33.25
30598;BME280;17365;48.878;8.334;2022-08-04T09:30:06;99759.00;;;32.25;33.33
30598;BME280;17365;48.878;8.334;2022-08-04T09:35:21;99757.06;;;32.07;33.63
30598;BME280;17365;48.878;8.334;2022-08-04T09:40:44;99763.38;;;32.26;33.32
30598;BME280;17365;48.878;8.334;2022-08-04T09:46:16;99754.31;;;32.46;33.17
30598;BME280;17365;48.878;8.334;2022-08-04T09:48:52;99749.41;;;32.69;32.68
30598;BME280;17365;48.878;8.334;2022-08-04T10:00:07;99753.66;;;33.09;32.09
30598;BME280;17365;48.878;8.334;2022-08-04T10:02:35;99746.19;;;33.03;32.21
30598;BME280;17365;48.878;8.334;2022-08-04T10:05:02;99737.97;;;33.04;31.87
30598;BME280;17365;48.878;8.334;2022-08-04T10:07:42;99733.84;;;33.10;31.68
30598;BME280;17365;48.878;8.334;2022-08-04T10:13:17;99738.88;;;33.40;31.08
30598;BME280;17365;48.878;8.334;2022-08-04T10:15:54;99732.84;;;33.28;31.86
30598;BME280;17365;48.878;8.334;2022-08-04T10:18:58;99732.84;;;33.56;31.22
30598;BME280;17365;48.878;8.334;2022-08-04T10:21:41;99719.47;;;33.46;30.75
30598;BME280;17365;48.878;8.334;2022-08-04T10:27:04;99718.53;;;33.73;30.01
30598;BME280;17365;48.878;8.334;2022-08-04T10:32:10;99714.84;;;33.56;29.55
30598;BME280;17365;48.878;8.334;2022-08-04T10:34:58;99719.75;;;33.79;29.60
30598;BME280;17365;48.878;8.334;2022-08-04T10:37:49;99708.75;;;33.72;29.44
30598;BME280;17365;48.878;8.334;2022-08-04T10:40:26;99717.13;;;34.05;29.67
30598;BME280;17365;48.878;8.334;2022-08-04T10:43:41;99716.13;;;34.06;30.14
30598;BME280;17365;48.878;8.334;2022-08-04T10:46:27;99706.31;;;34.23;29.42
30598;BME280;17365;48.878;8.334;2022-08-04T10:49:12;99698.25;;;34.23;29.15
30598;BME280;17365;48.878;8.334;2022-08-04T10:51:46;99695.72;;;34.47;29.22
30598;BME280;17365;48.878;8.334;2022-08-04T10:54:21;99699.66;;;34.35;28.45
30598;BME280;17365;48.878;8.334;2022-08-04T10:56:56;99696.88;;;34.44;28.05
30598;BME280;17365;48.878;8.334;2022-08-04T10:59:32;99698.66;;;34.36;27.10
30598;BME280;17365;48.878;8.334;2022-08-04T11:02:10;99696.88;;;34.44;27.46
30598;BME280;17365;48.878;8.334;2022-08-04T11:04:48;99703.66;;;34.57;26.99
30598;BME280;17365;48.878;8.334;2022-08-04T11:07:16;99699.22;;;34.82;27.16
30598;BME280;17365;48.878;8.334;2022-08-04T11:09:42;99700.97;;;34.57;26.54
30598;BME280;17365;48.878;8.334;2022-08-04T11:12:24;99697.78;;;34.61;26.74
30598;BME280;17365;48.878;8.334;2022-08-04T11:14:57;99697.28;;;34.92;26.24
30598;BME280;17365;48.878;8.334;2022-08-04T11:17:46;99689.22;;;35.00;25.93
30598;BME280;17365;48.878;8.334;2022-08-04T11:23:10;99698.13;;;34.92;25.81
30598;BME280;17365;48.878;8.334;2022-08-04T11:25:46;99693.97;;;35.14;25.05
30598;BME280;17365;48.878;8.334;2022-08-04T11:28:41;99695.59;;;34.91;25.13
30598;BME280;17365;48.878;8.334;2022-08-04T11:31:20;99696.78;;;35.05;24.61
30598;BME280;17365;48.878;8.334;2022-08-04T11:34:03;99689.75;;;35.28;24.47
30598;BME280;17365;48.878;8.334;2022-08-04T11:39:14;99695.34;;;35.35;25.05
30598;BME280;17365;48.878;8.334;2022-08-04T11:41:52;99694.69;;;35.41;25.18
30598;BME280;17365;48.878;8.334;2022-08-04T11:49:48;99691.13;;;35.24;24.57
30598;BME280;17365;48.878;8.334;2022-08-04T11:52:18;99690.09;;;35.17;23.79
30598;BME280;17365;48.878;8.334;2022-08-04T11:54:44;99690.31;;;35.56;24.64
30598;BME280;17365;48.878;8.334;2022-08-04T11:57:11;99692.34;;;35.54;24.11
30598;BME280;17365;48.878;8.334;2022-08-04T11:59:37;99681.72;;;35.52;23.17
30598;BME280;17365;48.878;8.334;2022-08-04T12:05:08;99687.28;;;35.43;24.05
30598;BME280;17365;48.878;8.334;2022-08-04T12:10:29;99673.59;;;35.28;23.21
30598;BME280;17365;48.878;8.334;2022-08-04T12:16:09;99669.91;;;35.53;23.37
30598;BME280;17365;48.878;8.334;2022-08-04T12:18:46;99661.66;;;35.79;23.10
30598;BME280;17365;48.878;8.334;2022-08-04T12:21:28;99662.31;;;35.41;23.35
30598;BME280;17365;48.878;8.334;2022-08-04T12:24:00;99665.03;;;35.90;22.99
30598;BME280;17365;48.878;8.334;2022-08-04T12:26:31;99656.41;;;36.02;22.93
30598;BME280;17365;48.878;8.334;2022-08-04T12:29:00;99662.00;;;35.93;22.90
30598;BME280;17365;48.878;8.334;2022-08-04T12:31:41;99654.34;;;36.12;22.79
30598;BME280;17365;48.878;8.334;2022-08-04T12:34:16;99652.53;;;36.05;22.73
30598;BME280;17365;48.878;8.334;2022-08-04T12:36:57;99652.47;;;36.13;22.56
30598;BME280;17365;48.878;8.334;2022-08-04T12:39:26;99653.66;;;36.27;22.49
30598;BME280;17365;48.878;8.334;2022-08-04T12:44:36;99642.31;;;36.23;22.06
30598;BME280;17365;48.878;8.334;2022-08-04T12:47:10;99644.59;;;35.95;22.51
30598;BME280;17365;48.878;8.334;2022-08-04T12:49:38;99644.59;;;35.95;22.40
30598;BME280;17365;48.878;8.334;2022-08-04T12:52:07;99640.34;;;36.09;22.94
30598;BME280;17365;48.878;8.334;2022-08-04T12:54:33;99635.41;;;36.21;22.55
30598;BME280;17365;48.878;8.334;2022-08-04T12:57:03;99629.13;;;36.44;22.49
30598;BME280;17365;48.878;8.334;2022-08-04T12:59:36;99631.34;;;36.41;21.88
30598;BME280;17365;48.878;8.334;2022-08-04T13:02:03;99628.44;;;36.51;22.16
30598;BME280;17365;48.878;8.334;2022-08-04T13:04:31;99621.91;;;36.37;21.32
30598;BME280;17365;48.878;8.334;2022-08-04T13:07:12;99632.16;;;36.50;21.18
30598;BME280;17365;48.878;8.334;2022-08-04T13:09:39;99627.41;;;36.52;20.64
30598;BME280;17365;48.878;8.334;2022-08-04T13:12:16;99619.25;;;36.60;20.48
30598;BME280;17365;48.878;8.334;2022-08-04T13:14:43;99627.50;;;36.66;20.50
30598;BME280;17365;48.878;8.334;2022-08-04T13:17:12;99618.94;;;36.55;19.97
30598;BME280;17365;48.878;8.334;2022-08-04T13:19:38;99611.09;;;36.68;19.89
30598;BME280;17365;48.878;8.334;2022-08-04T13:22:09;99605.88;;;36.66;19.40
30598;BME280;17365;48.878;8.334;2022-08-04T13:24:36;99605.09;;;36.81;18.91
30598;BME280;17365;48.878;8.334;2022-08-04T13:27:06;99602.56;;;36.87;19.30
30598;BME280;17365;48.878;8.334;2022-08-04T13:29:45;99593.44;;;36.80;19.06
30598;BME280;17365;48.878;8.334;2022-08-04T13:32:18;99592.59;;;36.80;18.89
30598;BME280;17365;48.878;8.334;2022-08-04T13:34:46;99589.00;;;36.95;18.90
30598;BME280;17365;48.878;8.334;2022-08-04T13:37:13;99583.44;;;36.58;19.07
30598;BME280;17365;48.878;8.334;2022-08-04T13:39:44;99584.00;;;36.76;18.43
30598;BME280;17365;48.878;8.334;2022-08-04T13:42:12;99578.97;;;36.73;18.62
30598;BME280;17365;48.878;8.334;2022-08-04T13:44:40;99574.66;;;36.56;18.16
30598;BME280;17365;48.878;8.334;2022-08-04T13:47:11;99574.88;;;36.77;18.09
30598;BME280;17365;48.878;8.334;2022-08-04T13:49:37;99579.09;;;36.80;18.43
30598;BME280;17365;48.878;8.334;2022-08-04T13:52:05;99571.69;;;36.82;18.00
30598;BME280;17365;48.878;8.334;2022-08-04T13:54:39;99581.53;;;36.97;17.77
30598;BME280;17365;48.878;8.334;2022-08-04T13:57:08;99569.03;;;36.96;16.78
30598;BME280;17365;48.878;8.334;2022-08-04T13:59:36;99564.28;;;36.98;16.63
30598;BME280;17365;48.878;8.334;2022-08-04T14:02:07;99565.28;;;36.74;16.27
30598;BME280;17365;48.878;8.334;2022-08-04T14:04:37;99561.34;;;36.85;15.98
30598;BME280;17365;48.878;8.334;2022-08-04T14:07:17;99557.31;;;36.81;15.32
30598;BME280;17365;48.878;8.334;2022-08-04T14:09:43;99556.19;;;36.98;16.47
30598;BME280;17365;48.878;8.334;2022-08-04T14:12:11;99551.25;;;37.02;15.44
30598;BME280;17365;48.878;8.334;2022-08-04T14:14:48;99552.25;;;37.01;15.31
30598;BME280;17365;48.878;8.334;2022-08-04T14:17:23;99547.41;;;36.96;15.09
30598;BME280;17365;48.878;8.334;2022-08-04T14:25:13;99541.00;;;37.12;16.76
30598;BME280;17365;48.878;8.334;2022-08-04T14:27:59;99540.91;;;37.06;17.25
30598;BME280;17365;48.878;8.334;2022-08-04T14:30:33;99542.66;;;36.98;17.43
30598;BME280;17365;48.878;8.334;2022-08-04T14:33:11;99538.88;;;37.08;17.36
30598;BME280;17365;48.878;8.334;2022-08-04T14:35:38;99539.94;;;37.21;17.48
30598;BME280;17365;48.878;8.334;2022-08-04T14:38:08;99540.53;;;37.09;17.56
30598;BME280;17365;48.878;8.334;2022-08-04T14:40:36;99532.72;;;37.14;17.67
30598;BME280;17365;48.878;8.334;2022-08-04T14:43:03;99536.00;;;37.24;17.51
30598;BME280;17365;48.878;8.334;2022-08-04T14:45:29;99530.63;;;37.01;17.74
30598;BME280;17365;48.878;8.334;2022-08-04T14:47:55;99533.97;;;37.03;17.65
30598;BME280;17365;48.878;8.334;2022-08-04T14:50:52;99520.16;;;37.21;17.42
30598;BME280;17365;48.878;8.334;2022-08-04T14:53:20;99524.88;;;37.04;17.82
30598;BME280;17365;48.878;8.334;2022-08-04T14:55:48;99515.38;;;37.08;17.39
30598;BME280;17365;48.878;8.334;2022-08-04T14:58:21;99517.81;;;37.18;17.60
30598;BME280;17365;48.878;8.334;2022-08-04T15:00:48;99514.03;;;37.27;18.02
30598;BME280;17365;48.878;8.334;2022-08-04T15:03:14;99517.06;;;37.24;17.54
30598;BME280;17365;48.878;8.334;2022-08-04T15:05:41;99513.91;;;37.20;17.69
30598;BME280;17365;48.878;8.334;2022-08-04T15:08:07;99511.66;;;37.24;17.48
30598;BME280;17365;48.878;8.334;2022-08-04T15:10:33;99513.72;;;37.22;17.18
30598;BME280;17365;48.878;8.334;2022-08-04T15:13:00;99513.19;;;37.26;17.40
30598;BME280;17365;48.878;8.334;2022-08-04T15:15:26;99513.97;;;37.12;17.33
30598;BME280;17365;48.878;8.334;2022-08-04T15:17:53;99516.13;;;37.17;17.44
30598;BME280;17365;48.878;8.334;2022-08-04T15:20:19;99520.81;;;36.77;17.57
30598;BME280;17365;48.878;8.334;2022-08-04T15:22:45;99515.00;;;36.88;17.71
30598;BME280;17365;48.878;8.334;2022-08-04T15:25:10;99514.78;;;36.98;17.47
30598;BME280;17365;48.878;8.334;2022-08-04T15:27:38;99507.50;;;36.98;17.46
30598;BME280;17365;48.878;8.334;2022-08-04T15:30:06;99511.34;;;36.81;17.45
30598;BME280;17365;48.878;8.334;2022-08-04T15:32:36;99508.97;;;36.78;16.41
30598;BME280;17365;48.878;8.334;2022-08-04T15:35:19;99520.19;;;36.98;16.60
30598;BME280;17365;48.878;8.334;2022-08-04T15:45:53;99509.97;;;36.85;17.25
30598;BME280;17365;48.878;8.334;2022-08-04T15:53:28;99497.97;;;36.80;17.44
30598;BME280;17365;48.878;8.334;2022-08-04T15:55:54;99492.06;;;36.84;17.48
30598;BME280;17365;48.878;8.334;2022-08-04T15:58:21;99493.41;;;36.80;17.27
30598;BME280;17365;48.878;8.334;2022-08-04T16:16:29;99485.38;;;36.72;17.05
30598;BME280;17365;48.878;8.334;2022-08-04T16:19:05;99475.69;;;36.78;17.05
30598;BME280;17365;48.878;8.334;2022-08-04T16:21:33;99475.41;;;36.72;16.70
30598;BME280;17365;48.878;8.334;2022-08-04T16:24:18;99479.31;;;36.70;16.36
30598;BME280;17365;48.878;8.334;2022-08-04T16:26:49;99471.38;;;36.68;16.23
30598;BME280;17365;48.878;8.334;2022-08-04T16:29:34;99467.53;;;36.63;15.82
30598;BME280;17365;48.878;8.334;2022-08-04T16:32:13;99464.84;;;36.63;16.25
30598;BME280;17365;48.878;8.334;2022-08-04T16:34:55;99468.94;;;36.59;16.51
30598;BME280;17365;48.878;8.334;2022-08-04T16:37:35;99464.88;;;36.55;15.82
30598;BME280;17365;48.878;8.334;2022-08-04T16:40:24;99459.53;;;36.47;16.28
30598;BME280;17365;48.878;8.334;2022-08-04T16:42:57;99462.38;;;36.53;16.00
30598;BME280;17365;48.878;8.334;2022-08-04T16:45:38;99464.88;;;36.55;16.10
30598;BME280;17365;48.878;8.334;2022-08-04T16:48:06;99465.63;;;36.49;16.29
30598;BME280;17365;48.878;8.334;2022-08-04T16:50:33;99457.72;;;36.47;16.15
30598;BME280;17365;48.878;8.334;2022-08-04T16:52:59;99455.53;;;36.42;16.39
30598;BME280;17365;48.878;8.334;2022-08-04T16:55:34;99463.81;;;36.41;16.43
30598;BME280;17365;48.878;8.334;2022-08-04T16:57:59;99458.13;;;36.36;16.40
30598;BME280;17365;48.878;8.334;2022-08-04T17:00:29;99457.09;;;36.37;16.40